Time;durP1;ratioP1;P1;durP2;ratioP2;P2;SDS_P1;SDS_P2;PMS_P1;PMS_P2;Temp;Humidity;BMP_temperature;BMP_pressure;BME280_temperature;BME280_humidity;BME280_pressure;Samples;Min_cycle;Max_cycle;Signal;HPM_P1;HPM_P2
2023/09/28 00:00:51;;;;;;;105.57;55.40;;;20.20;91.40;;;;;;4972148;28;90435;-43
2023/09/28 00:03:17;;;;;;;107.07;55.80;;;20.20;91.40;;;;;;4965420;28;89529;-43
2023/09/28 00:05:42;;;;;;;104.82;55.30;;;20.20;91.50;;;;;;4968494;28;91139;-43
2023/09/28 00:08:08;;;;;;;104.72;55.35;;;20.20;91.40;;;;;;4966912;28;90387;-44
2023/09/28 00:10:34;;;;;;;104.72;55.75;;;20.20;91.40;;;;;;4966971;28;90069;-44
2023/09/28 00:12:59;;;;;;;104.82;55.05;;;20.10;91.40;;;;;;4966857;28;89402;-43
2023/09/28 00:15:25;;;;;;;105.05;55.47;;;20.10;91.40;;;;;;4967188;28;90317;-43
2023/09/28 00:17:52;;;;;;;105.85;55.58;;;20.20;91.60;;;;;;4967371;28;90100;-44
2023/09/28 00:20:19;;;;;;;105.88;55.90;;;20.20;91.60;;;;;;4967489;28;91024;-42
2023/09/28 00:22:46;;;;;;;105.25;55.85;;;20.10;91.40;;;;;;4972316;28;89464;-43
2023/09/28 00:25:12;;;;;;;104.72;55.22;;;20.20;91.70;;;;;;4966547;28;89817;-43
2023/09/28 00:27:39;;;;;;;104.10;55.33;;;20.10;91.40;;;;;;4969151;28;89698;-43
2023/09/28 00:30:09;;;;;;;105.35;55.38;;;20.10;91.30;;;;;;4965354;28;89928;-44
2023/09/28 00:32:35;;;;;;;106.00;55.60;;;20.10;91.30;;;;;;4971834;28;89809;-45
2023/09/28 00:35:02;;;;;;;105.07;55.65;;;20.10;91.40;;;;;;4966623;28;89463;-42
2023/09/28 00:37:27;;;;;;;104.47;55.47;;;20.10;91.40;;;;;;4963180;28;89014;-44
2023/09/28 00:39:55;;;;;;;105.95;56.00;;;20.10;91.50;;;;;;4973933;28;90106;-43
2023/09/28 00:42:22;;;;;;;105.00;55.38;;;20.10;91.30;;;;;;4974765;28;89416;-42
2023/09/28 00:44:47;;;;;;;106.13;55.90;;;20.10;91.30;;;;;;4963520;28;90529;-44
2023/09/28 00:47:13;;;;;;;105.95;55.70;;;20.10;91.30;;;;;;4969153;28;89887;-42
2023/09/28 00:49:40;;;;;;;105.57;55.70;;;20.10;91.30;;;;;;4964406;28;90479;-43
2023/09/28 00:52:07;;;;;;;105.43;55.30;;;20.00;91.60;;;;;;4964701;28;89509;-43
2023/09/28 00:54:34;;;;;;;103.82;55.22;;;20.10;91.50;;;;;;4962172;28;90417;-43
2023/09/28 00:57:00;;;;;;;105.72;55.70;;;20.00;91.70;;;;;;4969231;28;91854;-43
2023/09/28 00:59:26;;;;;;;105.25;55.83;;;20.10;91.60;;;;;;4968296;28;89567;-42
2023/09/28 01:01:54;;;;;;;105.53;55.50;;;20.10;91.50;;;;;;4965923;28;90013;-43
2023/09/28 01:04:22;;;;;;;107.20;55.55;;;20.10;91.30;;;;;;4968933;28;90150;-43
2023/09/28 01:06:48;;;;;;;105.57;55.75;;;20.10;91.50;;;;;;4968520;28;90567;-43
2023/09/28 01:09:15;;;;;;;107.43;56.10;;;20.10;91.50;;;;;;4969353;28;90680;-43
2023/09/28 01:11:41;;;;;;;105.30;55.80;;;20.10;91.30;;;;;;4968382;28;90724;-45
2023/09/28 01:14:07;;;;;;;105.50;55.78;;;20.10;91.60;;;;;;4965182;28;90310;-43
2023/09/28 01:16:33;;;;;;;105.93;55.65;;;20.10;91.30;;;;;;4963895;28;94088;-44
2023/09/28 01:18:59;;;;;;;105.97;55.92;;;20.10;91.30;;;;;;4967798;28;90334;-44
2023/09/28 01:21:25;;;;;;;104.75;55.63;;;20.10;91.20;;;;;;4967839;28;90014;-43
2023/09/28 01:23:51;;;;;;;105.18;55.83;;;20.20;91.40;;;;;;4966504;28;89998;-45
2023/09/28 01:26:17;;;;;;;105.10;55.85;;;20.20;91.20;;;;;;4970167;28;89083;-43
2023/09/28 01:28:43;;;;;;;104.75;55.45;;;20.20;91.30;;;;;;4970368;28;90473;-43
2023/09/28 01:31:08;;;;;;;106.25;55.60;;;20.20;91.30;;;;;;4967803;28;89582;-44
2023/09/28 01:33:34;;;;;;;107.30;55.58;;;20.20;91.20;;;;;;4972470;28;91594;-45
2023/09/28 01:35:59;;;;;;;105.38;55.65;;;20.20;91.10;;;;;;4966808;28;92165;-45
2023/09/28 01:38:40;;;;;;;105.13;55.50;;;20.20;90.90;;;;;;4970211;28;90064;-43
2023/09/28 01:41:06;;;;;;;105.88;55.50;;;20.20;91.10;;;;;;4965269;28;96085;-43
2023/09/28 01:43:32;;;;;;;106.80;55.42;;;20.20;91.00;;;;;;4965264;28;89777;-45
2023/09/28 01:45:58;;;;;;;105.85;55.28;;;20.20;91.20;;;;;;4969014;28;89874;-44
2023/09/28 01:48:23;;;;;;;106.78;55.58;;;20.20;90.90;;;;;;4970906;28;89904;-44
2023/09/28 01:50:49;;;;;;;106.15;55.00;;;20.20;91.00;;;;;;4965679;28;89386;-43
2023/09/28 01:53:14;;;;;;;106.53;55.47;;;20.20;90.90;;;;;;4965498;28;90230;-45
2023/09/28 01:55:40;;;;;;;108.28;55.22;;;20.20;91.10;;;;;;4967676;28;89968;-43
2023/09/28 01:58:07;;;;;;;107.90;55.75;;;20.20;91.00;;;;;;4973028;28;90830;-42
2023/09/28 02:00:34;;;;;;;105.10;55.33;;;20.20;91.30;;;;;;4968677;28;90903;-42
2023/09/28 02:03:03;;;;;;;106.47;55.33;;;20.20;91.10;;;;;;4971950;28;90221;-43
2023/09/28 02:05:32;;;;;;;105.47;55.20;;;20.20;90.90;;;;;;4967536;28;90763;-43
2023/09/28 02:07:59;;;;;;;108.95;55.40;;;20.10;91.10;;;;;;4954823;28;89649;-43
2023/09/28 02:10:24;;;;;;;105.28;55.22;;;20.10;91.30;;;;;;4968559;28;89735;-43
2023/09/28 02:12:50;;;;;;;105.07;54.80;;;20.10;91.10;;;;;;4974184;28;90761;-44
2023/09/28 02:15:16;;;;;;;105.72;55.58;;;20.10;91.20;;;;;;4966694;28;90470;-43
2023/09/28 02:17:43;;;;;;;107.43;55.40;;;20.10;91.10;;;;;;4969077;28;93518;-45
2023/09/28 02:20:10;;;;;;;107.43;55.20;;;20.00;91.20;;;;;;4970130;28;91053;-43
2023/09/28 02:22:46;;;;;;;110.47;55.65;;;20.00;91.10;;;;;;4968268;28;92200;-43
2023/09/28 02:25:18;;;;;;;106.88;54.97;;;20.00;91.10;;;;;;4972102;28;90700;-45
2023/09/28 02:27:48;;;;;;;108.40;55.13;;;20.00;91.20;;;;;;4967286;28;89478;-44
2023/09/28 02:30:17;;;;;;;106.95;55.38;;;19.90;91.10;;;;;;4963675;28;91315;-43
2023/09/28 02:32:43;;;;;;;107.13;55.50;;;19.90;91.30;;;;;;4967374;28;90556;-45
2023/09/28 02:35:11;;;;;;;106.78;55.53;;;19.90;91.40;;;;;;4965725;28;89939;-45
2023/09/28 02:37:37;;;;;;;106.95;54.83;;;19.80;91.50;;;;;;4970887;28;89592;-45
2023/09/28 02:40:06;;;;;;;106.72;55.00;;;19.80;91.40;;;;;;4968954;28;88685;-44
2023/09/28 02:42:33;;;;;;;106.57;55.03;;;19.80;91.60;;;;;;4972515;28;89503;-44
2023/09/28 02:44:59;;;;;;;106.80;55.22;;;19.80;91.80;;;;;;4974823;28;89448;-46
2023/09/28 02:47:25;;;;;;;109.60;55.50;;;19.70;91.60;;;;;;4970678;28;90835;-44
2023/09/28 02:49:51;;;;;;;106.95;54.95;;;19.70;91.70;;;;;;4968406;28;90968;-45
2023/09/28 02:52:17;;;;;;;107.68;54.78;;;19.70;92.00;;;;;;4968747;28;89743;-43
2023/09/28 02:54:43;;;;;;;105.45;54.67;;;19.70;92.00;;;;;;4968062;28;95068;-44
2023/09/28 02:57:09;;;;;;;109.18;54.88;;;19.70;91.90;;;;;;4971525;28;89385;-43
2023/09/28 02:59:36;;;;;;;106.63;55.20;;;19.60;91.80;;;;;;4971373;28;89566;-43
2023/09/28 03:02:03;;;;;;;107.95;55.30;;;19.60;92.10;;;;;;4970314;28;90523;-44
2023/09/28 03:04:33;;;;;;;107.13;54.88;;;19.60;92.20;;;;;;4968162;28;90374;-45
2023/09/28 03:06:59;;;;;;;106.33;55.33;;;19.50;92.20;;;;;;4966947;28;90192;-44
2023/09/28 03:09:24;;;;;;;107.10;55.00;;;19.50;92.50;;;;;;4967143;28;89791;-43
2023/09/28 03:11:50;;;;;;;106.85;54.72;;;19.50;92.40;;;;;;4974356;28;90994;-44
2023/09/28 03:14:16;;;;;;;109.30;55.10;;;19.40;92.30;;;;;;4967626;28;91091;-44
2023/09/28 03:16:42;;;;;;;109.70;55.30;;;19.40;92.30;;;;;;4970302;28;89610;-45
2023/09/28 03:19:08;;;;;;;111.60;55.63;;;19.30;92.40;;;;;;4972758;28;89611;-43
2023/09/28 03:21:35;;;;;;;106.70;55.00;;;19.30;92.40;;;;;;4970886;28;90553;-46
2023/09/28 03:24:01;;;;;;;105.35;54.90;;;19.30;92.90;;;;;;4967813;28;93710;-44
2023/09/28 03:26:30;;;;;;;109.70;55.45;;;19.30;92.60;;;;;;4965354;28;90195;-44
2023/09/28 03:28:56;;;;;;;106.07;54.67;;;19.20;92.70;;;;;;4968499;28;89236;-44
2023/09/28 03:31:27;;;;;;;107.80;54.80;;;19.20;92.90;;;;;;4964739;28;90372;-45
2023/09/28 03:33:53;;;;;;;108.90;55.15;;;19.20;92.80;;;;;;4969583;28;89654;-44
2023/09/28 03:36:19;;;;;;;109.68;55.25;;;19.20;92.80;;;;;;4969378;28;90499;-45
2023/09/28 03:38:44;;;;;;;109.38;55.03;;;19.20;93.00;;;;;;4966921;28;89624;-44
2023/09/28 03:41:10;;;;;;;109.55;54.85;;;19.10;93.00;;;;;;4971156;28;90417;-42
2023/09/28 03:43:35;;;;;;;108.75;54.97;;;19.10;93.00;;;;;;4966961;28;89361;-45
2023/09/28 03:46:01;;;;;;;109.45;54.70;;;19.10;93.20;;;;;;4971178;28;94006;-43
2023/09/28 03:48:27;;;;;;;111.70;54.88;;;19.10;93.10;;;;;;4969427;28;89727;-43
2023/09/28 03:50:53;;;;;;;107.28;55.13;;;19.00;93.10;;;;;;4969434;28;89465;-43
2023/09/28 03:53:18;;;;;;;108.78;55.45;;;19.00;93.20;;;;;;4972202;28;88876;-43
2023/09/28 03:55:49;;;;;;;109.10;54.67;;;19.00;93.00;;;;;;4970343;28;90183;-43
2023/09/28 03:58:15;;;;;;;107.88;55.25;;;18.90;93.30;;;;;;4971335;28;89959;-45
2023/09/28 04:00:41;;;;;;;110.30;55.10;;;18.90;93.60;;;;;;4963466;28;90875;-45
2023/09/28 04:03:07;;;;;;;111.57;55.20;;;18.90;93.10;;;;;;4968049;28;90454;-44
2023/09/28 04:05:33;;;;;;;108.80;54.78;;;18.90;93.70;;;;;;4965680;28;91017;-43
2023/09/28 04:07:58;;;;;;;112.40;55.00;;;18.90;93.70;;;;;;4968751;28;90023;-44
2023/09/28 04:10:24;;;;;;;108.70;54.60;;;18.90;93.60;;;;;;4970036;28;90437;-44
2023/09/28 04:12:50;;;;;;;107.05;54.92;;;18.80;93.60;;;;;;4970547;28;91200;-45
2023/09/28 04:15:16;;;;;;;111.32;55.03;;;18.80;93.40;;;;;;4968338;28;90336;-43
2023/09/28 04:17:42;;;;;;;109.72;54.97;;;18.80;93.80;;;;;;4970086;28;89363;-42
2023/09/28 04:20:09;;;;;;;106.88;54.38;;;18.80;93.80;;;;;;4947577;28;90958;-43
2023/09/28 04:22:35;;;;;;;109.68;54.85;;;18.80;93.80;;;;;;4964464;28;91705;-44
2023/09/28 04:25:01;;;;;;;108.03;54.47;;;18.70;93.50;;;;;;4967666;28;90406;-43
2023/09/28 04:27:27;;;;;;;109.82;54.95;;;18.70;94.10;;;;;;4969232;28;89822;-43
2023/09/28 04:29:53;;;;;;;110.15;54.67;;;18.70;93.50;;;;;;4971809;28;89594;-45
2023/09/28 04:32:18;;;;;;;109.70;54.92;;;18.70;93.90;;;;;;4961421;28;90013;-45
2023/09/28 04:34:44;;;;;;;106.60;54.65;;;18.60;93.80;;;;;;4967745;28;91061;-45
2023/09/28 04:37:09;;;;;;;108.97;54.80;;;18.60;93.80;;;;;;4970490;28;89682;-44
2023/09/28 04:39:35;;;;;;;109.68;54.83;;;18.60;93.80;;;;;;4972191;28;90616;-44
2023/09/28 04:42:01;;;;;;;109.47;55.13;;;18.60;94.30;;;;;;4977844;28;88859;-44
2023/09/28 04:44:27;;;;;;;111.70;55.45;;;18.60;94.20;;;;;;4965066;28;90746;-44
2023/09/28 04:46:53;;;;;;;109.28;54.75;;;18.60;93.90;;;;;;4965952;28;91067;-45
2023/09/28 04:49:19;;;;;;;108.43;55.03;;;18.60;93.90;;;;;;4973618;28;90893;-46
2023/09/28 04:51:45;;;;;;;113.30;55.50;;;18.50;94.10;;;;;;4973849;28;91005;-47
2023/09/28 04:54:11;;;;;;;109.53;55.03;;;18.50;94.10;;;;;;4977621;28;89897;-46
2023/09/28 04:56:36;;;;;;;105.47;54.35;;;18.50;94.00;;;;;;4970833;28;91740;-51
2023/09/28 04:59:02;;;;;;;104.90;54.20;;;18.50;94.00;;;;;;4969959;28;89706;-47
2023/09/28 05:01:28;;;;;;;104.07;54.38;;;18.50;94.00;;;;;;4969433;28;90157;-47
2023/09/28 05:03:54;;;;;;;113.82;55.45;;;18.50;94.80;;;;;;4965301;28;90103;-45
2023/09/28 05:06:20;;;;;;;106.70;54.58;;;18.50;94.60;;;;;;4966141;28;89752;-43
2023/09/28 05:08:46;;;;;;;105.10;54.33;;;18.50;94.40;;;;;;4962593;28;89429;-48
2023/09/28 05:11:11;;;;;;;111.72;54.60;;;18.50;94.00;;;;;;4964354;28;90175;-46
2023/09/28 05:13:37;;;;;;;108.03;54.78;;;18.50;94.30;;;;;;4970948;28;90397;-45
2023/09/28 05:16:03;;;;;;;108.55;54.25;;;18.50;94.30;;;;;;4965604;28;91188;-45
2023/09/28 05:18:29;;;;;;;106.97;54.92;;;18.40;94.60;;;;;;4972883;28;90491;-45
2023/09/28 05:20:55;;;;;;;108.15;54.35;;;18.40;94.90;;;;;;4964138;28;91775;-48
2023/09/28 05:23:21;;;;;;;108.13;54.67;;;18.40;94.30;;;;;;4967279;28;90695;-44
2023/09/28 05:25:47;;;;;;;112.38;55.00;;;18.40;95.20;;;;;;4962813;28;90610;-47
2023/09/28 05:28:13;;;;;;;110.15;54.72;;;18.40;94.70;;;;;;4973110;28;89963;-48
2023/09/28 05:30:38;;;;;;;105.40;54.58;;;18.40;95.00;;;;;;4968998;28;90071;-46
2023/09/28 05:33:04;;;;;;;104.45;54.53;;;18.40;94.70;;;;;;4973178;28;89914;-46
2023/09/28 05:35:30;;;;;;;107.90;54.83;;;18.40;95.00;;;;;;4976239;28;90013;-44
2023/09/28 05:37:55;;;;;;;108.85;54.85;;;18.40;94.90;;;;;;4965212;28;92308;-47
2023/09/28 05:40:21;;;;;;;110.00;55.08;;;18.40;95.20;;;;;;4972896;28;89885;-50
2023/09/28 05:42:48;;;;;;;111.63;55.13;;;18.40;95.10;;;;;;4964487;28;90302;-50
2023/09/28 05:45:14;;;;;;;111.28;55.17;;;18.40;95.10;;;;;;4971692;28;90254;-45
2023/09/28 05:47:39;;;;;;;108.93;54.53;;;18.40;95.40;;;;;;4970575;28;91418;-48
2023/09/28 05:50:06;;;;;;;107.75;54.88;;;18.40;95.10;;;;;;4973051;28;92579;-51
2023/09/28 05:52:31;;;;;;;109.07;54.92;;;18.40;95.10;;;;;;4967568;28;90155;-49
2023/09/28 05:54:57;;;;;;;113.25;55.25;;;18.40;95.30;;;;;;4972414;28;92612;-46
2023/09/28 05:57:23;;;;;;;108.13;54.75;;;18.40;95.10;;;;;;4973038;28;90358;-46
2023/09/28 05:59:49;;;;;;;109.35;55.03;;;18.40;94.70;;;;;;4979325;28;89394;-46
2023/09/28 06:02:15;;;;;;;108.90;54.95;;;18.30;95.10;;;;;;4975248;28;90785;-45
2023/09/28 06:04:41;;;;;;;109.25;55.05;;;18.40;95.10;;;;;;4969923;28;90189;-44
2023/09/28 06:07:07;;;;;;;108.55;54.88;;;18.40;95.30;;;;;;4965817;28;90133;-47
2023/09/28 06:09:33;;;;;;;110.97;55.20;;;18.40;95.30;;;;;;4973112;28;89638;-47
2023/09/28 06:12:00;;;;;;;109.97;55.40;;;18.40;95.20;;;;;;4972407;28;93939;-46
2023/09/28 06:14:25;;;;;;;111.38;55.17;;;18.40;95.70;;;;;;4977051;28;90289;-48
2023/09/28 06:16:51;;;;;;;108.25;54.97;;;18.40;95.70;;;;;;4975912;28;89380;-48
2023/09/28 06:19:16;;;;;;;108.38;54.83;;;18.40;95.40;;;;;;4978397;28;89401;-49
2023/09/28 06:21:42;;;;;;;108.07;54.85;;;18.40;95.50;;;;;;4971706;28;91963;-44
2023/09/28 06:24:08;;;;;;;110.15;56.10;;;18.40;94.90;;;;;;4972398;28;91805;-43
2023/09/28 06:26:33;;;;;;;108.15;55.47;;;18.40;95.10;;;;;;4973653;28;91506;-44
2023/09/28 06:29:00;;;;;;;109.55;55.95;;;18.40;95.20;;;;;;4973126;28;90687;-45
2023/09/28 06:31:26;;;;;;;112.95;56.10;;;18.40;94.80;;;;;;4971820;28;90156;-48
2023/09/28 06:33:51;;;;;;;113.43;56.83;;;18.40;94.60;;;;;;4972019;28;89376;-45
2023/09/28 06:36:18;;;;;;;115.35;56.15;;;18.40;94.50;;;;;;4969650;28;92785;-44
2023/09/28 06:38:44;;;;;;;119.57;55.55;;;18.30;92.10;;;;;;4960618;28;90403;-43
2023/09/28 06:41:10;;;;;;;119.53;55.67;;;17.80;93.10;;;;;;4971028;28;90399;-43
2023/09/28 06:43:35;;;;;;;120.50;55.90;;;17.60;93.10;;;;;;4972894;28;88750;-45
2023/09/28 06:46:02;;;;;;;122.45;55.72;;;17.40;93.50;;;;;;4967096;28;91327;-42
2023/09/28 06:48:28;;;;;;;116.80;55.65;;;17.30;93.80;;;;;;4971005;28;91945;-44
2023/09/28 06:50:57;;;;;;;119.43;55.55;;;17.20;94.50;;;;;;4961445;28;91871;-45
2023/09/28 06:53:24;;;;;;;112.10;55.17;;;17.20;94.50;;;;;;4959885;28;90642;-45
2023/09/28 06:55:50;;;;;;;118.85;55.45;;;17.20;94.40;;;;;;4964524;28;89908;-45
2023/09/28 06:58:17;;;;;;;118.53;55.65;;;17.20;94.60;;;;;;4964971;28;95996;-43
2023/09/28 07:00:44;;;;;;;118.35;55.70;;;17.30;94.80;;;;;;4974361;28;90214;-44
2023/09/28 07:03:09;;;;;;;118.60;56.22;;;17.20;94.30;;;;;;4965248;28;90071;-43
2023/09/28 07:05:36;;;;;;;123.65;55.67;;;17.20;94.70;;;;;;4950420;28;91657;-45
2023/09/28 07:08:05;;;;;;;119.38;55.65;;;17.30;94.40;;;;;;4968176;28;89689;-45
2023/09/28 07:10:34;;;;;;;120.47;55.45;;;17.20;94.10;;;;;;4971151;28;91172;-45
2023/09/28 07:13:01;;;;;;;124.05;55.60;;;17.20;94.70;;;;;;4962335;28;89785;-45
2023/09/28 07:15:30;;;;;;;115.50;55.00;;;17.30;94.70;;;;;;4960158;28;90805;-46
2023/09/28 07:17:56;;;;;;;121.45;55.47;;;17.40;94.20;;;;;;4962718;28;91971;-45
2023/09/28 07:20:22;;;;;;;121.10;55.60;;;17.40;93.90;;;;;;4960710;28;94675;-45
2023/09/28 07:22:49;;;;;;;120.70;55.50;;;17.40;94.20;;;;;;4967121;28;91300;-44
2023/09/28 07:25:15;;;;;;;119.75;55.22;;;17.30;93.80;;;;;;4944727;28;90023;-43
2023/09/28 07:27:44;;;;;;;116.50;55.45;;;17.40;94.50;;;;;;4972087;28;90291;-45
2023/09/28 07:30:11;;;;;;;118.78;55.55;;;17.40;94.20;;;;;;4963155;28;92738;-43
2023/09/28 07:32:40;;;;;;;117.80;55.30;;;17.40;94.00;;;;;;4963039;28;89127;-46
2023/09/28 07:35:09;;;;;;;122.45;55.22;;;17.50;94.30;;;;;;4969213;28;90235;-45
2023/09/28 07:37:35;;;;;;;120.65;55.47;;;17.60;93.10;;;;;;4969824;28;90301;-46
2023/09/28 07:40:01;;;;;;;117.78;54.95;;;17.60;93.30;;;;;;4963692;28;95779;-46
2023/09/28 07:42:27;;;;;;;118.97;55.67;;;17.60;93.40;;;;;;4961961;28;89859;-49
2023/09/28 07:44:53;;;;;;;114.90;55.05;;;17.60;93.30;;;;;;4938860;28;92169;-46
2023/09/28 07:47:19;;;;;;;117.05;55.65;;;17.70;92.90;;;;;;4960157;28;91011;-47
2023/09/28 07:49:45;;;;;;;116.13;55.78;;;17.80;93.00;;;;;;4956428;28;90198;-47
2023/09/28 07:52:11;;;;;;;117.28;55.40;;;17.80;93.10;;;;;;4967488;28;91203;-48
2023/09/28 07:54:37;;;;;;;111.47;55.00;;;17.90;92.90;;;;;;4959990;28;96157;-46
2023/09/28 07:57:04;;;;;;;119.80;55.85;;;17.90;93.10;;;;;;4960631;28;89925;-44
2023/09/28 07:59:33;;;;;;;114.43;55.58;;;18.00;91.80;;;;;;4956374;28;91072;-44
2023/09/28 08:01:59;;;;;;;120.22;55.67;;;18.00;92.30;;;;;;4962923;28;90820;-46
2023/09/28 08:04:26;;;;;;;117.03;54.92;;;17.90;92.40;;;;;;4956581;28;90831;-44
2023/09/28 08:06:52;;;;;;;111.53;55.28;;;17.90;93.20;;;;;;4961459;28;91016;-44
2023/09/28 08:09:19;;;;;;;112.82;54.85;;;17.80;93.30;;;;;;4962673;28;91726;-45
2023/09/28 08:11:46;;;;;;;121.03;55.65;;;17.90;93.70;;;;;;4955684;28;89845;-45
2023/09/28 08:14:15;;;;;;;115.20;55.63;;;18.10;92.10;;;;;;4944831;28;93716;-45
2023/09/28 08:16:50;;;;;;;126.90;56.47;;;18.30;92.20;;;;;;4958549;28;89954;-45
2023/09/28 08:19:17;;;;;;;118.25;55.97;;;18.50;91.70;;;;;;4963315;28;90286;-45
2023/09/28 08:21:43;;;;;;;121.43;55.88;;;18.60;91.50;;;;;;4954872;28;90546;-45
2023/09/28 08:24:10;;;;;;;113.43;56.10;;;18.60;91.10;;;;;;4963818;28;90048;-42
2023/09/28 08:26:36;;;;;;;117.68;56.05;;;18.60;91.20;;;;;;4959974;28;89754;-41
2023/09/28 08:29:03;;;;;;;113.05;55.47;;;18.70;91.60;;;;;;4966623;28;90661;-42
2023/09/28 08:31:30;;;;;;;113.63;55.70;;;18.80;91.00;;;;;;4939603;28;91387;-43
2023/09/28 08:33:58;;;;;;;122.10;56.05;;;18.90;90.70;;;;;;4958501;28;91092;-40
2023/09/28 08:36:24;;;;;;;120.25;56.50;;;19.10;90.90;;;;;;4960725;28;90304;-41
2023/09/28 08:38:51;;;;;;;113.65;56.08;;;19.20;89.70;;;;;;4961197;28;89990;-44
2023/09/28 08:41:25;;;;;;;120.18;56.25;;;19.30;90.10;;;;;;4948632;28;90665;-41
2023/09/28 08:44:01;;;;;;;122.88;56.60;;;19.50;88.50;;;;;;4961830;28;89601;-44
2023/09/28 08:46:29;;;;;;;119.38;56.15;;;19.60;86.80;;;;;;4964049;28;90709;-43
2023/09/28 08:48:59;;;;;;;116.00;56.10;;;19.50;88.80;;;;;;4956342;28;89700;-45
2023/09/28 08:51:25;;;;;;;119.75;56.47;;;19.50;86.90;;;;;;4961192;28;93687;-45
2023/09/28 08:53:52;;;;;;;122.80;56.10;;;19.50;87.00;;;;;;4962107;28;94184;-44
2023/09/28 08:56:19;;;;;;;115.50;56.30;;;19.50;86.80;;;;;;4967485;28;91638;-45
2023/09/28 08:58:46;;;;;;;114.40;56.05;;;19.60;87.10;;;;;;4967439;28;90738;-47
2023/09/28 09:01:12;;;;;;;117.00;56.22;;;19.60;85.60;;;;;;4968750;28;90223;-45
2023/09/28 09:03:39;;;;;;;115.65;56.35;;;19.80;85.90;;;;;;4964759;28;89980;-41
2023/09/28 09:06:08;;;;;;;120.80;56.30;;;19.70;85.40;;;;;;4964284;28;90311;-41
2023/09/28 09:08:35;;;;;;;114.25;55.53;;;19.70;85.50;;;;;;4960840;28;90442;-44
2023/09/28 09:11:01;;;;;;;115.50;55.90;;;19.70;83.10;;;;;;4972126;28;88832;-47
2023/09/28 09:13:26;;;;;;;114.85;55.65;;;19.60;84.10;;;;;;4967482;28;90015;-43
2023/09/28 09:15:52;;;;;;;118.60;55.70;;;19.70;85.00;;;;;;4968696;28;89395;-41
2023/09/28 09:18:19;;;;;;;117.57;55.88;;;19.80;82.50;;;;;;4964678;28;92135;-43
2023/09/28 09:20:46;;;;;;;113.88;55.90;;;19.80;83.20;;;;;;4964317;28;89721;-43
2023/09/28 09:23:13;;;;;;;113.80;55.72;;;19.90;83.30;;;;;;4962837;28;89491;-43
2023/09/28 09:25:53;;;;;;;118.13;56.28;;;19.90;82.60;;;;;;4965393;28;90057;-42
2023/09/28 09:28:32;;;;;;;113.68;56.45;;;19.90;82.40;;;;;;4965198;28;90649;-46
2023/09/28 09:30:58;;;;;;;117.78;56.47;;;20.00;82.40;;;;;;4966953;28;89558;-44
2023/09/28 09:33:25;;;;;;;119.07;56.47;;;20.20;82.90;;;;;;4969296;28;90584;-44
2023/09/28 09:35:51;;;;;;;114.68;55.90;;;20.20;82.10;;;;;;4963175;28;90647;-44
2023/09/28 09:38:26;;;;;;;115.10;56.40;;;20.40;79.70;;;;;;4964488;28;90162;-45
2023/09/28 09:40:58;;;;;;;118.78;56.58;;;20.50;81.20;;;;;;4958680;28;89844;-44
2023/09/28 09:43:24;;;;;;;119.82;56.85;;;20.60;80.10;;;;;;4949748;28;91453;-42
2023/09/28 09:45:50;;;;;;;115.13;56.38;;;20.50;79.60;;;;;;4963835;28;90132;-43
2023/09/28 09:48:16;;;;;;;116.32;56.58;;;20.60;80.00;;;;;;4966736;28;89387;-44
2023/09/28 09:50:43;;;;;;;120.15;57.03;;;20.70;79.70;;;;;;4959800;28;91101;-42
2023/09/28 09:53:10;;;;;;;117.07;57.00;;;20.70;79.20;;;;;;4950595;28;89938;-47
2023/09/28 09:55:43;;;;;;;116.82;57.03;;;20.80;78.70;;;;;;4965171;28;90343;-41
2023/09/28 09:58:13;;;;;;;117.85;57.10;;;20.90;76.30;;;;;;4963573;28;89957;-43
2023/09/28 10:00:40;;;;;;;113.88;56.10;;;20.80;76.70;;;;;;4965814;28;90919;-44
2023/09/28 10:03:08;;;;;;;118.88;56.85;;;20.70;78.30;;;;;;4958822;28;90915;-45
2023/09/28 10:05:36;;;;;;;116.32;56.70;;;20.80;77.80;;;;;;4962254;28;90136;-44
2023/09/28 10:08:05;;;;;;;120.20;56.88;;;20.80;77.50;;;;;;4968949;28;91567;-45
2023/09/28 10:10:30;;;;;;;121.22;56.70;;;20.60;77.00;;;;;;4962884;28;89824;-44
2023/09/28 10:12:58;;;;;;;115.82;56.38;;;20.60;78.30;;;;;;4971557;28;89915;-44
2023/09/28 10:15:25;;;;;;;119.95;56.65;;;20.70;77.10;;;;;;4969518;28;90483;-46
2023/09/28 10:17:53;;;;;;;117.53;56.22;;;20.70;77.30;;;;;;4970202;28;89455;-45
2023/09/28 10:20:19;;;;;;;115.53;55.92;;;20.60;78.40;;;;;;4969710;28;89831;-45
2023/09/28 10:22:45;;;;;;;116.40;56.30;;;20.70;78.20;;;;;;4963780;28;91226;-46
2023/09/28 10:25:15;;;;;;;118.22;56.20;;;20.60;75.40;;;;;;4972547;28;91983;-45
2023/09/28 10:27:46;;;;;;;115.68;56.50;;;20.60;78.70;;;;;;4966601;28;89867;-45
2023/09/28 10:30:30;;;;;;;117.70;56.13;;;20.60;78.70;;;;;;4971760;28;90158;-46
2023/09/28 10:32:57;;;;;;;113.95;56.20;;;20.50;78.60;;;;;;4972364;28;92878;-45
2023/09/28 10:35:30;;;;;;;113.25;55.95;;;20.50;75.00;;;;;;4973868;28;90994;-45
2023/09/28 10:38:17;;;;;;;116.07;55.92;;;20.40;72.10;;;;;;4969324;28;89806;-45
2023/09/28 10:40:59;;;;;;;112.45;55.80;;;20.50;77.60;;;;;;4969821;28;91511;-45
2023/09/28 10:43:55;;;;;;;116.03;56.28;;;20.70;77.50;;;;;;4962745;28;90890;-45
2023/09/28 10:46:22;;;;;;;116.10;56.05;;;20.80;73.90;;;;;;4948964;28;89937;-45
2023/09/28 10:48:48;;;;;;;116.72;56.63;;;20.90;77.70;;;;;;4970109;28;90677;-45
2023/09/28 10:51:15;;;;;;;119.35;56.47;;;21.10;78.50;;;;;;4972157;28;89099;-45
2023/09/28 10:53:42;;;;;;;118.10;56.30;;;21.10;75.90;;;;;;4968243;28;89935;-46
2023/09/28 10:56:08;;;;;;;119.00;57.22;;;21.20;74.10;;;;;;4965380;28;94577;-47
2023/09/28 10:58:37;;;;;;;113.93;56.53;;;21.30;77.30;;;;;;4970065;28;90850;-45
2023/09/28 11:01:06;;;;;;;113.95;56.42;;;21.50;73.80;;;;;;4969183;28;89694;-45
2023/09/28 11:03:36;;;;;;;118.65;56.83;;;21.50;72.80;;;;;;4962591;28;90189;-45
2023/09/28 11:06:03;;;;;;;114.53;56.30;;;21.60;74.40;;;;;;4970861;28;91409;-47
2023/09/28 11:08:30;;;;;;;118.70;57.25;;;21.70;74.90;;;;;;4972791;28;94555;-46
2023/09/28 11:10:58;;;;;;;117.35;56.63;;;21.70;71.80;;;;;;4968975;28;89434;-47
2023/09/28 11:13:25;;;;;;;116.45;57.05;;;21.80;71.20;;;;;;4966678;28;90648;-45
2023/09/28 11:15:51;;;;;;;117.18;57.00;;;21.80;73.20;;;;;;4967109;28;90097;-46
2023/09/28 11:18:18;;;;;;;118.82;57.22;;;21.90;74.80;;;;;;4967450;28;90174;-46
2023/09/28 11:20:48;;;;;;;114.07;56.22;;;21.90;71.50;;;;;;4970329;28;89644;-45
2023/09/28 11:23:14;;;;;;;113.20;56.65;;;21.80;72.30;;;;;;4962913;28;91896;-46
2023/09/28 11:25:44;;;;;;;114.68;56.78;;;21.70;73.80;;;;;;4965899;28;89792;-46
2023/09/28 11:28:11;;;;;;;112.65;56.17;;;21.70;74.30;;;;;;4959963;28;90301;-45
2023/09/28 11:30:37;;;;;;;114.63;56.97;;;21.70;74.00;;;;;;4966173;28;90075;-45
2023/09/28 11:33:04;;;;;;;117.57;56.85;;;21.70;73.30;;;;;;4960640;28;90055;-43
2023/09/28 11:35:31;;;;;;;119.93;57.00;;;21.80;72.60;;;;;;4959341;28;90334;-46
2023/09/28 11:38:10;;;;;;;114.43;56.65;;;21.80;72.40;;;;;;4966624;28;90003;-45
2023/09/28 11:40:38;;;;;;;116.80;57.08;;;21.90;72.40;;;;;;4963638;28;88923;-43
2023/09/28 11:43:05;;;;;;;118.28;56.63;;;22.00;72.20;;;;;;4959275;28;90363;-47
2023/09/28 11:45:33;;;;;;;115.18;57.13;;;22.10;70.20;;;;;;4964320;28;91020;-48
2023/09/28 11:48:20;;;;;;;116.53;56.70;;;22.10;69.90;;;;;;4963652;28;91169;-45
2023/09/28 11:50:46;;;;;;;119.25;57.00;;;22.10;68.30;;;;;;4949462;28;89648;-45
2023/09/28 11:53:12;;;;;;;117.25;57.17;;;22.10;68.40;;;;;;4950222;28;89685;-48
2023/09/28 11:55:41;;;;;;;116.45;57.03;;;21.80;66.50;;;;;;4961923;28;89991;-44
2023/09/28 11:58:09;;;;;;;117.93;56.88;;;21.70;71.80;;;;;;4964525;28;90807;-43
2023/09/28 12:00:36;;;;;;;115.45;57.10;;;21.80;69.70;;;;;;4963186;28;93980;-42
2023/09/28 12:03:03;;;;;;;115.75;57.08;;;21.90;68.10;;;;;;4961842;28;90915;-46
2023/09/28 12:05:31;;;;;;;116.22;57.22;;;21.90;68.20;;;;;;4944234;28;95302;-42
2023/09/28 12:07:57;;;;;;;117.10;57.33;;;22.00;70.30;;;;;;4963469;28;89632;-44
2023/09/28 12:10:23;;;;;;;116.10;57.25;;;22.00;68.50;;;;;;4961882;28;90068;-43
2023/09/28 12:12:49;;;;;;;115.32;56.90;;;21.90;69.40;;;;;;4965854;28;94818;-43
2023/09/28 12:15:16;;;;;;;115.40;57.13;;;21.90;68.50;;;;;;4945679;28;89738;-43
2023/09/28 12:17:42;;;;;;;114.28;56.85;;;22.00;69.60;;;;;;4965434;28;89911;-42